Kansas City, Missouri
Traffic Map
Current Weather Conditions
Kansas City, Missouri
Clear
Clear

Feels Like: 4°
Wind Chill: Ceiling: Unl
Heat Index: Visibility: 10mi
Dew Point: -8° Wind: 0mph
Humidity: 43% Direction: ° ()
Pressure: 30.47in Gusts: 0mph
Raw Report DataKMKC 301954Z 00000KT 10SM CLR 04/M08 A3047 RMK AO2 SLP323 T00391078
Traffic Incident Summary
Active as of:
Severity:
Category:
InformationThere was an issue retrieving the traffic information for this location. Please try a different location or try again shortly.
Advertisements
Track Severe Weather on mobile